Time;durP1;ratioP1;P1;durP2;ratioP2;P2;SDS_P1;SDS_P2;PMS_P1;PMS_P2;Temp;Humidity;BMP_temperature;BMP_pressure;BME280_temperature;BME280_humidity;BME280_pressure;Samples;Min_cycle;Max_cycle;Signal;HPM_P1;HPM_P2
2023/09/23 00:00:12;;;;;;;7.38;4.60;;;;;;;11.06;100.00;96957.63;4968890;28;20406;-79
2023/09/23 00:02:40;;;;;;;11.40;4.97;;;;;;;11.06;100.00;96957.63;4961625;28;20457;-82
2023/09/23 00:05:10;;;;;;;9.65;4.65;;;;;;;11.09;100.00;96958.94;4969092;28;20413;-82
2023/09/23 00:07:36;;;;;;;9.75;4.82;;;;;;;11.12;100.00;96955.78;4969672;28;20454;-81
2023/09/23 00:10:07;;;;;;;7.18;4.57;;;;;;;11.11;100.00;96957.63;4968969;28;20420;-81
2023/09/23 00:12:34;;;;;;;7.45;4.30;;;;;;;11.11;100.00;96951.53;4961546;28;20814;-81
2023/09/23 00:15:01;;;;;;;8.60;4.55;;;;;;;11.07;100.00;96959.22;4961877;28;20460;-80
2023/09/23 00:17:29;;;;;;;6.20;4.20;;;;;;;11.06;100.00;96960.25;4969205;28;20405;-81
2023/09/23 00:19:56;;;;;;;10.50;4.70;;;;;;;11.04;100.00;96962.41;4962778;28;20413;-82
2023/09/23 00:22:23;;;;;;;7.37;4.23;;;;;;;11.03;100.00;96963.47;4973096;28;20404;-81
2023/09/23 00:24:50;;;;;;;6.20;4.03;;;;;;;11.03;100.00;96966.09;4972396;28;20442;-82
2023/09/23 00:27:17;;;;;;;10.93;5.13;;;;;;;11.01;100.00;96975.38;4975558;28;20424;-82
2023/09/23 00:29:44;;;;;;;8.90;4.70;;;;;;;10.99;100.00;96965.03;4963562;28;20398;-82
2023/09/23 00:32:12;;;;;;;10.23;4.90;;;;;;;10.94;100.00;96965.03;4967830;28;20910;-79
2023/09/23 00:34:40;;;;;;;8.38;4.88;;;;;;;10.92;100.00;96967.13;4958823;28;20414;-80
2023/09/23 00:37:08;;;;;;;8.80;4.70;;;;;;;10.86;100.00;96965.56;4956636;28;20411;-81
2023/09/23 00:39:42;;;;;;;6.50;4.22;;;;;;;10.81;100.00;96965.56;4972765;28;20402;-82
2023/09/23 00:42:10;;;;;;;11.88;4.95;;;;;;;10.77;100.00;96961.81;4954771;29;20409;-82
2023/09/23 00:44:40;;;;;;;6.22;4.25;;;;;;;10.75;100.00;96962.06;4962410;28;20444;-81
2023/09/23 00:47:07;;;;;;;9.63;4.38;;;;;;;10.74;100.00;96962.38;4975850;28;20418;-81
2023/09/23 00:49:34;;;;;;;6.07;3.97;;;;;;;10.72;100.00;96964.47;4961175;28;20410;-81
2023/09/23 00:52:05;;;;;;;7.60;4.47;;;;;;;10.70;100.00;96958.63;4969680;28;20395;-81
2023/09/23 00:54:32;;;;;;;8.00;3.70;;;;;;;10.69;100.00;96968.44;4965321;28;20406;-82
2023/09/23 00:57:00;;;;;;;6.32;4.00;;;;;;;10.66;100.00;96968.16;4975178;28;20404;-80
2023/09/23 00:59:27;;;;;;;6.45;3.80;;;;;;;10.62;100.00;96969.72;4966917;28;20406;-79
2023/09/23 01:01:56;;;;;;;8.98;4.53;;;;;;;10.54;100.00;96970.22;4974685;28;20440;-81
2023/09/23 01:04:23;;;;;;;7.47;4.20;;;;;;;10.52;100.00;96965.22;4973587;28;20433;-81
2023/09/23 01:06:50;;;;;;;7.32;4.18;;;;;;;10.50;100.00;96969.19;4973504;28;20402;-80
2023/09/23 01:09:20;;;;;;;10.02;4.30;;;;;;;10.47;100.00;96967.84;4974282;28;20406;-81
2023/09/23 01:11:47;;;;;;;6.17;4.20;;;;;;;10.40;100.00;96978.66;4973587;28;20405;-82
2023/09/23 01:14:13;;;;;;;9.02;4.60;;;;;;;10.35;100.00;96977.88;4965423;28;20402;-80
2023/09/23 01:16:41;;;;;;;10.73;4.75;;;;;;;10.30;100.00;96978.63;4973441;28;20433;-83
2023/09/23 01:19:09;;;;;;;12.43;4.68;;;;;;;10.28;100.00;96987.88;4965792;28;20441;-82
2023/09/23 01:21:35;;;;;;;11.73;4.80;;;;;;;10.24;100.00;96992.09;4966056;28;20905;-82
2023/09/23 01:24:03;;;;;;;10.70;4.68;;;;;;;10.21;100.00;96995.25;4978999;28;20424;-80
2023/09/23 01:26:30;;;;;;;12.30;5.00;;;;;;;10.14;100.00;96992.81;4966456;28;20415;-82
2023/09/23 01:28:56;;;;;;;8.65;4.07;;;;;;;10.14;100.00;96997.31;4962747;28;20416;-81
2023/09/23 01:31:25;;;;;;;7.10;4.10;;;;;;;10.09;100.00;97006.81;4969123;28;20433;-81
2023/09/23 01:33:51;;;;;;;8.20;4.30;;;;;;;10.06;100.00;96999.41;4961081;28;20410;-80
2023/09/23 01:36:17;;;;;;;8.68;4.20;;;;;;;10.04;100.00;97001.50;4964704;28;20404;-81
2023/09/23 01:38:43;;;;;;;9.48;4.35;;;;;;;10.03;100.00;97009.69;4972669;28;20760;-82
2023/09/23 01:41:11;;;;;;;7.27;4.00;;;;;;;10.00;100.00;97005.69;4964089;28;20404;-81
2023/09/23 01:43:37;;;;;;;9.63;4.25;;;;;;;9.99;100.00;97014.69;4965792;28;20910;-81
2023/09/23 01:46:03;;;;;;;7.65;4.00;;;;;;;9.98;100.00;97023.69;4960796;28;20441;-81
2023/09/23 01:48:29;;;;;;;9.75;4.18;;;;;;;9.93;100.00;97018.34;4961147;28;20878;-81
2023/09/23 01:50:58;;;;;;;8.05;4.30;;;;;;;9.91;100.00;97019.66;4970281;28;20763;-82
2023/09/23 01:53:25;;;;;;;9.68;4.43;;;;;;;9.86;100.00;97012.50;4966940;28;20437;-81
2023/09/23 01:55:51;;;;;;;8.30;4.10;;;;;;;9.86;100.00;97009.84;4961122;28;20421;-81
2023/09/23 01:58:22;;;;;;;9.32;4.50;;;;;;;9.86;100.00;97003.75;4965124;28;20402;-81
2023/09/23 02:00:49;;;;;;;7.50;4.18;;;;;;;9.83;100.00;97005.09;4968164;28;20413;-81
2023/09/23 02:03:15;;;;;;;9.13;4.20;;;;;;;9.81;100.00;97012.47;4975331;28;20417;-81
2023/09/23 02:05:42;;;;;;;9.02;4.03;;;;;;;9.79;100.00;97013.75;4966805;28;20402;-81
2023/09/23 02:08:08;;;;;;;7.38;3.53;;;;;;;9.80;100.00;97025.94;4962393;28;20416;-81
2023/09/23 02:10:34;;;;;;;8.15;3.80;;;;;;;9.77;100.00;97027.25;4964826;28;20414;-81
2023/09/23 02:13:00;;;;;;;8.98;4.05;;;;;;;9.75;100.00;97024.06;4960188;28;20456;-81
2023/09/23 02:15:28;;;;;;;9.27;3.92;;;;;;;9.72;100.00;97024.56;4968235;28;20425;-79
2023/09/23 02:17:54;;;;;;;17.45;5.07;;;;;;;9.70;100.00;97030.09;4968344;28;20402;-81
2023/09/23 02:20:21;;;;;;;10.13;4.60;;;;;;;9.65;100.00;97043.28;4960504;28;20465;-81
2023/09/23 02:22:49;;;;;;;9.55;3.97;;;;;;;9.61;100.00;97049.34;4974731;28;20932;-80
2023/09/23 02:25:16;;;;;;;12.48;4.57;;;;;;;9.56;100.00;97052.72;4966951;28;20918;-81
2023/09/23 02:27:44;;;;;;;10.27;4.50;;;;;;;9.58;100.00;97044.53;4967552;28;20444;-81
2023/09/23 02:30:11;;;;;;;6.40;4.18;;;;;;;9.55;100.00;97042.38;4966627;28;20413;-81
2023/09/23 02:32:40;;;;;;;10.40;4.50;;;;;;;9.55;100.00;97040.53;4973595;28;20506;-80
2023/09/23 02:35:11;;;;;;;10.48;4.75;;;;;;;9.52;100.00;97042.91;4962427;28;20469;-81
2023/09/23 02:37:38;;;;;;;8.50;4.55;;;;;;;9.49;100.00;97046.84;4969950;28;20482;-81
2023/09/23 02:40:11;;;;;;;8.30;4.72;;;;;;;9.47;100.00;97046.28;4960521;28;20409;-81
2023/09/23 02:42:39;;;;;;;6.47;4.30;;;;;;;9.44;100.00;97048.66;4959389;28;20402;-81
2023/09/23 02:45:06;;;;;;;8.10;4.43;;;;;;;9.43;100.00;97053.13;4959574;28;20406;-80
2023/09/23 02:47:32;;;;;;;7.18;4.40;;;;;;;9.41;100.00;97060.50;4964151;28;20507;-82
2023/09/23 02:50:00;;;;;;;7.70;3.90;;;;;;;9.42;100.00;97058.66;4969136;28;20412;-82
2023/09/23 02:52:26;;;;;;;7.43;4.60;;;;;;;9.40;100.00;97060.78;4959707;29;20413;-81
2023/09/23 02:54:54;;;;;;;7.38;4.75;;;;;;;9.38;100.00;97068.94;4959549;28;20755;-81
2023/09/23 02:57:20;;;;;;;7.78;4.47;;;;;;;9.39;100.00;97070.56;4963687;28;20436;-81
2023/09/23 02:59:53;;;;;;;8.30;4.78;;;;;;;9.39;100.00;97077.69;4962597;28;20437;-81
2023/09/23 03:02:24;;;;;;;7.22;4.22;;;;;;;9.39;100.00;97075.84;4966811;28;20751;-82
2023/09/23 03:04:58;;;;;;;8.02;4.75;;;;;;;9.38;100.00;97081.38;4967260;28;20447;-83
2023/09/23 03:07:32;;;;;;;10.15;6.13;;;;;;;9.39;100.00;97088.25;4981381;28;20411;-84
2023/09/23 03:10:01;;;;;;;10.25;5.85;;;;;;;9.36;100.00;97084.25;4981580;28;20401;-83
2023/09/23 03:12:29;;;;;;;7.50;4.90;;;;;;;9.37;100.00;97085.84;4960558;28;20405;-82
2023/09/23 03:14:56;;;;;;;6.35;4.75;;;;;;;9.37;100.00;97088.50;4960799;28;20421;-82
2023/09/23 03:17:22;;;;;;;8.88;5.13;;;;;;;9.34;100.00;97088.97;4961004;28;20410;-84
2023/09/23 03:19:50;;;;;;;9.40;5.38;;;;;;;9.32;100.00;97096.38;4965956;29;20425;-85
2023/09/23 03:22:20;;;;;;;10.10;5.53;;;;;;;9.29;100.00;97094.22;4962724;28;20880;-81
2023/09/23 03:24:48;;;;;;;7.78;4.85;;;;;;;9.28;100.00;97097.91;4969122;28;20455;-83
2023/09/23 03:27:15;;;;;;;9.88;6.03;;;;;;;9.19;100.00;97107.31;4959131;28;20417;-84
2023/09/23 03:29:41;;;;;;;13.27;6.60;;;;;;;9.20;100.00;97106.28;4959669;28;20481;-83
2023/09/23 03:32:07;;;;;;;7.73;5.53;;;;;;;9.21;100.00;97111.31;4959494;28;20402;-83
2023/09/23 03:34:37;;;;;;;10.55;5.88;;;;;;;9.20;100.00;97104.44;4964511;28;20434;-82
2023/09/23 03:37:04;;;;;;;7.23;5.07;;;;;;;9.20;100.00;97115.00;4960606;28;20602;-81
2023/09/23 03:39:30;;;;;;;10.73;5.68;;;;;;;9.21;100.00;97119.22;4963943;28;20793;-84
2023/09/23 03:41:58;;;;;;;9.07;5.80;;;;;;;9.22;100.00;97120.84;4961603;28;20426;-84
2023/09/23 03:44:24;;;;;;;9.68;5.65;;;;;;;9.20;100.00;97120.28;4959148;28;20422;-82
2023/09/23 03:46:50;;;;;;;8.43;5.37;;;;;;;9.21;100.00;97121.88;4959167;29;20453;-83
2023/09/23 03:49:17;;;;;;;8.88;5.30;;;;;;;9.19;100.00;97123.97;4976212;28;20430;-84
2023/09/23 03:51:44;;;;;;;9.10;5.60;;;;;;;9.19;100.00;97129.25;4960564;28;20402;-82
2023/09/23 03:54:11;;;;;;;6.95;4.90;;;;;;;9.19;100.00;97129.25;4960091;29;20414;-83
2023/09/23 03:56:40;;;;;;;8.85;5.18;;;;;;;9.17;100.00;97135.84;4966247;28;20447;-84
2023/09/23 03:59:07;;;;;;;9.23;5.45;;;;;;;9.16;100.00;97132.41;4961110;28;20425;-83
2023/09/23 04:01:36;;;;;;;8.07;5.05;;;;;;;9.15;100.00;97127.34;4960318;29;20763;-83
2023/09/23 04:04:02;;;;;;;8.48;5.13;;;;;;;9.12;100.00;97126.00;4959878;28;20433;-84
2023/09/23 04:06:29;;;;;;;8.57;5.28;;;;;;;9.08;100.00;97130.19;4961445;29;20409;-84
2023/09/23 04:08:58;;;;;;;8.90;5.63;;;;;;;9.06;100.00;97134.13;4968035;28;20408;-84
2023/09/23 04:11:26;;;;;;;9.35;5.65;;;;;;;9.07;100.00;97136.50;4960616;28;20397;-84
2023/09/23 04:13:52;;;;;;;8.65;5.25;;;;;;;9.06;100.00;97142.84;4962775;28;20430;-82
2023/09/23 04:16:19;;;;;;;8.68;5.50;;;;;;;9.05;100.00;97135.16;4971699;28;20521;-84
2023/09/23 04:18:51;;;;;;;9.45;5.35;;;;;;;9.04;100.00;97138.84;4967166;28;20406;-84
2023/09/23 04:21:20;;;;;;;9.35;5.40;;;;;;;9.04;100.00;97134.34;4972219;28;20869;-83
2023/09/23 04:23:48;;;;;;;9.05;5.32;;;;;;;9.02;100.00;97135.66;4969506;28;20448;-83
2023/09/23 04:26:14;;;;;;;9.75;5.40;;;;;;;9.03;100.00;97134.59;4967346;28;20400;-82
2023/09/23 04:28:41;;;;;;;7.25;5.10;;;;;;;9.03;100.00;97138.03;4962073;28;20428;-83
2023/09/23 04:31:08;;;;;;;9.27;5.38;;;;;;;9.03;100.00;97135.41;4964888;28;20401;-82
2023/09/23 04:33:36;;;;;;;9.63;5.75;;;;;;;9.00;100.00;97141.19;4965076;28;20502;-83
2023/09/23 04:36:02;;;;;;;9.23;5.25;;;;;;;9.00;100.00;97137.75;4964033;28;20461;-83
2023/09/23 04:38:28;;;;;;;8.55;5.35;;;;;;;8.99;100.00;97146.69;4963560;29;20739;-83
2023/09/23 04:40:55;;;;;;;8.27;5.18;;;;;;;8.99;100.00;97147.50;4962972;29;20437;-81
2023/09/23 04:43:21;;;;;;;9.27;5.55;;;;;;;8.99;100.00;97154.63;4962980;28;20440;-83
2023/09/23 04:45:48;;;;;;;9.13;5.50;;;;;;;8.97;100.00;97146.94;4962031;29;20414;-82
2023/09/23 04:48:16;;;;;;;9.90;5.60;;;;;;;8.93;100.00;97149.28;4961756;28;20429;-84
2023/09/23 04:50:46;;;;;;;7.63;5.15;;;;;;;8.92;100.00;97157.44;4963107;28;20713;-83
2023/09/23 04:53:12;;;;;;;8.18;5.20;;;;;;;8.88;100.00;97159.78;4962307;28;20408;-82
2023/09/23 04:55:39;;;;;;;6.68;4.85;;;;;;;8.88;100.00;97156.34;4971013;28;20472;-81
2023/09/23 04:58:06;;;;;;;9.70;5.80;;;;;;;8.82;100.00;97160.75;4967764;28;20409;-82
2023/09/23 05:00:32;;;;;;;8.25;5.07;;;;;;;8.83;100.00;97167.63;4966592;28;20401;-83
2023/09/23 05:02:58;;;;;;;7.22;4.82;;;;;;;8.82;100.00;97167.88;4961859;28;20418;-83
2023/09/23 05:05:25;;;;;;;8.77;5.03;;;;;;;8.81;100.00;97169.72;4969398;28;20429;-83
2023/09/23 05:07:53;;;;;;;8.38;5.60;;;;;;;8.79;100.00;97174.47;4967650;28;20437;-85
2023/09/23 05:10:19;;;;;;;7.50;4.93;;;;;;;8.79;100.00;97174.47;4963910;28;20410;-82
2023/09/23 05:12:46;;;;;;;6.90;5.07;;;;;;;8.78;100.00;97167.59;4963840;28;20445;-82
2023/09/23 05:15:14;;;;;;;9.38;5.13;;;;;;;8.76;100.00;97184.69;4966753;28;20428;-83
2023/09/23 05:17:42;;;;;;;8.00;5.03;;;;;;;8.76;100.00;97182.84;4959715;28;20417;-83
2023/09/23 05:20:15;;;;;;;9.93;5.03;;;;;;;8.77;100.00;97181.81;4960641;28;20406;-81
2023/09/23 05:22:41;;;;;;;7.25;4.70;;;;;;;8.79;100.00;97187.66;4966651;28;20467;-83
2023/09/23 05:25:11;;;;;;;7.82;4.50;;;;;;;8.80;100.00;97191.88;4975767;28;20845;-82
2023/09/23 05:27:39;;;;;;;11.73;5.22;;;;;;;8.80;100.00;97198.97;4982115;28;21476;-79
2023/09/23 05:30:08;;;;;;;8.40;5.18;;;;;;;8.79;100.00;97203.50;4982698;28;20417;-79
2023/09/23 05:32:35;;;;;;;6.85;4.90;;;;;;;8.81;100.00;97204.03;4984420;28;20418;-79
2023/09/23 05:35:01;;;;;;;7.88;5.03;;;;;;;8.80;100.00;97205.06;4984894;28;20406;-79
2023/09/23 05:37:27;;;;;;;10.98;5.82;;;;;;;8.83;100.00;97209.06;4987061;28;20428;-80
2023/09/23 05:39:54;;;;;;;7.82;5.53;;;;;;;8.90;100.00;97213.13;4984961;28;20400;-82
2023/09/23 05:42:24;;;;;;;10.45;5.80;;;;;;;8.92;100.00;97211.06;4982601;28;20412;-83
2023/09/23 05:44:50;;;;;;;8.38;5.30;;;;;;;8.93;100.00;97220.56;4988519;28;20447;-82
2023/09/23 05:47:16;;;;;;;9.70;5.35;;;;;;;9.00;100.00;97224.88;4984121;28;20400;-80
2023/09/23 05:49:45;;;;;;;8.50;5.57;;;;;;;9.00;100.00;97233.59;4990809;28;20394;-82
2023/09/23 05:52:14;;;;;;;8.95;5.18;;;;;;;9.07;100.00;97230.75;4991559;28;20408;-88
2023/09/23 05:54:41;;;;;;;9.98;5.40;;;;;;;9.07;100.00;97228.94;4983982;28;21042;-81
2023/09/23 05:57:07;;;;;;;9.18;5.07;;;;;;;9.09;100.00;97233.97;4984120;28;20404;-82
2023/09/23 05:59:35;;;;;;;13.68;6.68;;;;;;;9.06;100.00;97237.88;4991481;28;20401;-80
2023/09/23 06:02:04;;;;;;;11.82;6.13;;;;;;;9.13;100.00;97251.69;4981662;28;20458;-82
2023/09/23 06:04:30;;;;;;;12.63;6.20;;;;;;;9.17;100.00;97252.03;4982595;28;20425;-82
2023/09/23 06:06:56;;;;;;;11.68;5.45;;;;;;;9.21;100.00;97259.19;4986421;28;20495;-82
2023/09/23 06:09:23;;;;;;;13.95;6.28;;;;;;;9.19;100.00;97255.19;4982899;28;20394;-84
2023/09/23 06:11:50;;;;;;;13.25;5.82;;;;;;;9.27;100.00;97258.22;4983541;28;20485;-84
2023/09/23 06:14:16;;;;;;;15.68;5.55;;;;;;;9.32;100.00;97270.72;4980808;28;20408;-83
2023/09/23 06:16:45;;;;;;;12.05;5.97;;;;;;;9.35;100.00;97264.13;4988068;28;20445;-82
2023/09/23 06:19:11;;;;;;;15.50;7.30;;;;;;;9.30;100.00;97273.59;4981966;28;20412;-82
2023/09/23 06:21:37;;;;;;;9.18;5.70;;;;;;;9.42;100.00;97277.94;4980592;28;20924;-80
2023/09/23 06:24:03;;;;;;;10.87;5.57;;;;;;;9.45;100.00;97280.09;4981374;28;20575;-83
2023/09/23 06:26:29;;;;;;;10.60;5.63;;;;;;;9.52;100.00;97281.50;4986888;28;20416;-82
2023/09/23 06:28:56;;;;;;;12.20;6.18;;;;;;;9.57;100.00;97281.56;4980298;28;20459;-84
2023/09/23 06:31:22;;;;;;;9.48;5.40;;;;;;;9.64;100.00;97284.81;4980498;28;20488;-83
2023/09/23 06:33:49;;;;;;;14.27;6.15;;;;;;;9.66;100.00;97282.72;4985311;28;20435;-84
2023/09/23 06:36:15;;;;;;;11.80;6.17;;;;;;;9.75;100.00;97280.44;4988081;28;20780;-84
2023/09/23 06:38:41;;;;;;;15.75;7.00;;;;;;;9.65;100.00;97285.59;4986889;28;20412;-85
2023/09/23 06:41:08;;;;;;;12.23;6.57;;;;;;;9.75;100.00;97287.56;4981196;28;20503;-85
2023/09/23 06:43:34;;;;;;;12.57;6.00;;;;;;;9.83;100.00;97290.59;4982792;28;20923;-82
2023/09/23 06:46:01;;;;;;;10.25;5.60;;;;;;;9.91;100.00;97299.91;4981376;28;20423;-82
2023/09/23 06:48:28;;;;;;;17.05;7.13;;;;;;;9.93;100.00;97293.31;4987950;28;20397;-83
2023/09/23 06:51:00;;;;;;;11.90;6.00;;;;;;;10.00;100.00;97299.19;4985893;28;20419;-83
2023/09/23 06:53:27;;;;;;;11.02;5.68;;;;;;;10.08;100.00;97297.97;4993432;28;20414;-82
2023/09/23 06:55:53;;;;;;;11.20;6.03;;;;;;;10.17;100.00;97301.78;4979713;28;20622;-82
2023/09/23 06:58:19;;;;;;;18.00;7.25;;;;;;;10.04;100.00;97305.59;4981688;28;20415;-84
2023/09/23 07:00:46;;;;;;;16.45;6.75;;;;;;;10.21;100.00;97305.53;4989177;28;20407;-83
2023/09/23 07:03:12;;;;;;;10.60;5.80;;;;;;;10.32;100.00;97306.41;4979772;28;20424;-82
2023/09/23 07:05:39;;;;;;;13.50;6.00;;;;;;;10.31;100.00;97307.47;4980176;28;20773;-82
2023/09/23 07:08:07;;;;;;;12.15;5.90;;;;;;;10.50;100.00;97315.84;4978585;28;20403;-82
2023/09/23 07:10:35;;;;;;;12.77;6.50;;;;;;;10.46;100.00;97321.63;4983679;28;20399;-82
2023/09/23 07:13:03;;;;;;;17.73;6.90;;;;;;;10.54;100.00;97319.56;4991169;28;20427;-83
2023/09/23 07:15:30;;;;;;;16.27;6.00;;;;;;;10.64;100.00;97324.97;4978957;28;20491;-81
2023/09/23 07:17:57;;;;;;;12.95;5.75;;;;;;;10.77;100.00;97327.19;4979795;28;20400;-83
2023/09/23 07:20:23;;;;;;;12.90;6.10;;;;;;;10.78;100.00;97334.88;4980334;28;20435;-83
2023/09/23 07:22:49;;;;;;;9.00;4.93;;;;;;;10.93;100.00;97331.53;4985655;28;20438;-81
2023/09/23 07:25:17;;;;;;;11.73;5.55;;;;;;;11.04;100.00;97333.22;4977319;28;20872;-82
2023/09/23 07:27:43;;;;;;;9.80;5.32;;;;;;;11.05;100.00;97339.31;4979057;28;20405;-82
2023/09/23 07:30:10;;;;;;;8.60;4.88;;;;;;;11.18;100.00;97336.22;4979140;28;20412;-81
2023/09/23 07:32:36;;;;;;;11.17;5.10;;;;;;;11.25;100.00;97339.44;4979747;28;20400;-82
2023/09/23 07:35:03;;;;;;;10.02;5.15;;;;;;;11.40;100.00;97350.13;4984756;28;20412;-84
2023/09/23 07:37:29;;;;;;;10.98;4.93;;;;;;;11.53;100.00;97346.22;4985433;28;20404;-81
2023/09/23 07:39:56;;;;;;;8.95;4.78;;;;;;;11.71;100.00;97348.44;4987959;28;20408;-82
2023/09/23 07:42:23;;;;;;;11.77;4.57;;;;;;;11.68;100.00;97350.78;4988570;28;20416;-83
2023/09/23 07:44:49;;;;;;;11.13;4.35;;;;;;;11.72;100.00;97355.31;4988647;28;20423;-83
2023/09/23 07:47:15;;;;;;;9.35;4.60;;;;;;;11.83;100.00;97353.53;4984119;28;20407;-83
2023/09/23 07:49:42;;;;;;;8.93;4.15;;;;;;;11.75;100.00;97364.63;4978673;28;20444;-82
2023/09/23 07:52:08;;;;;;;9.75;4.15;;;;;;;11.70;100.00;97364.59;4977986;28;20400;-82
2023/09/23 07:54:36;;;;;;;7.38;4.13;;;;;;;11.78;100.00;97366.78;4981846;28;20411;-83
2023/09/23 07:57:02;;;;;;;9.30;3.97;;;;;;;11.78;100.00;97374.72;4979651;28;20498;-82
2023/09/23 07:59:30;;;;;;;9.57;4.85;;;;;;;11.79;100.00;97376.34;4978130;28;20405;-83
2023/09/23 08:01:56;;;;;;;9.60;3.75;;;;;;;11.92;100.00;97389.91;4978220;28;20404;-82
2023/09/23 08:04:22;;;;;;;7.38;3.40;;;;;;;12.06;100.00;97394.72;4976887;28;20508;-81
2023/09/23 08:06:48;;;;;;;8.25;3.60;;;;;;;12.13;100.00;97384.69;4979712;28;20805;-81
2023/09/23 08:09:14;;;;;;;8.02;3.58;;;;;;;12.20;100.00;97398.50;4979408;28;20404;-83
2023/09/23 08:11:40;;;;;;;6.70;3.47;;;;;;;12.41;100.00;97408.91;4978122;28;20743;-82
2023/09/23 08:14:07;;;;;;;15.95;3.97;;;;;;;12.43;100.00;97405.19;4978937;28;20408;-82
2023/09/23 08:16:34;;;;;;;5.55;2.83;;;;;;;12.42;100.00;97407.06;4978963;28;20734;-83
2023/09/23 08:19:00;;;;;;;4.30;2.42;;;;;;;12.73;100.00;97413.22;4978836;28;20431;-81
2023/09/23 08:21:26;;;;;;;4.70;2.67;;;;;;;12.94;100.00;97411.38;4983438;28;20432;-84
2023/09/23 08:23:53;;;;;;;9.23;3.05;;;;;;;13.10;100.00;97423.59;4981964;28;20768;-82
2023/09/23 08:26:19;;;;;;;7.47;2.90;;;;;;;13.37;100.00;97423.38;4979452;28;20861;-83
2023/09/23 08:28:45;;;;;;;3.55;2.38;;;;;;;13.36;100.00;97419.91;4983603;28;20408;-84
2023/09/23 08:31:12;;;;;;;4.75;2.25;;;;;;;13.50;100.00;97428.13;4985234;28;20423;-83
2023/09/23 08:33:39;;;;;;;3.42;1.92;;;;;;;13.40;100.00;97436.13;4977580;28;20432;-83
2023/09/23 08:36:06;;;;;;;5.00;1.95;;;;;;;13.26;100.00;97449.16;4977011;28;20482;-81
2023/09/23 08:38:32;;;;;;;3.20;1.88;;;;;;;13.45;100.00;97442.25;4977794;28;20757;-81
2023/09/23 08:41:03;;;;;;;3.17;1.70;;;;;;;13.56;100.00;97438.50;4976891;28;20444;-81
2023/09/23 08:43:36;;;;;;;6.20;1.83;;;;;;;13.35;100.00;97436.13;4976638;28;20430;-81
2023/09/23 08:46:05;;;;;;;2.95;1.77;;;;;;;13.46;100.00;97433.19;4977120;28;20412;-82
2023/09/23 08:48:34;;;;;;;3.47;1.60;;;;;;;13.52;100.00;97434.78;4977681;28;20434;-81
2023/09/23 08:51:03;;;;;;;2.67;1.60;;;;;;;13.56;100.00;97438.50;4977174;28;20404;-82
2023/09/23 08:53:32;;;;;;;1.98;1.42;;;;;;;13.56;100.00;97446.47;4977487;28;20881;-81
2023/09/23 08:55:59;;;;;;;6.10;1.50;;;;;;;13.28;100.00;97452.34;4977384;28;20478;-85
2023/09/23 08:58:25;;;;;;;3.47;1.60;;;;;;;13.36;100.00;97453.69;4976764;28;20408;-82
2023/09/23 09:00:53;;;;;;;3.08;1.48;;;;;;;13.32;100.00;97458.72;4986499;28;20415;-82
2023/09/23 09:03:19;;;;;;;2.60;1.50;;;;;;;13.59;100.00;97447.00;4982856;28;20515;-82
2023/09/23 09:05:46;;;;;;;1.50;1.20;;;;;;;13.75;100.00;97451.25;4973391;28;20409;-81
2023/09/23 09:08:14;;;;;;;1.33;1.20;;;;;;;13.65;100.00;97452.06;4977263;28;20471;-81
2023/09/23 09:10:41;;;;;;;1.67;1.20;;;;;;;13.75;100.00;97449.38;4977124;28;20814;-82
2023/09/23 09:13:07;;;;;;;2.53;1.40;;;;;;;13.91;100.00;97453.56;4977353;28;20632;-82
2023/09/23 09:15:35;;;;;;;1.73;1.30;;;;;;;13.91;100.00;97453.56;4980420;28;21047;-82
2023/09/23 09:18:04;;;;;;;1.98;1.20;;;;;;;13.95;100.00;97448.53;4981558;28;20812;-81
2023/09/23 09:20:31;;;;;;;3.58;1.60;;;;;;;13.87;100.00;97444.56;4982552;28;20416;-84
2023/09/23 09:22:57;;;;;;;2.38;1.30;;;;;;;13.98;100.00;97444.53;4980876;28;20439;-82
2023/09/23 09:25:25;;;;;;;1.40;1.05;;;;;;;14.15;100.00;97447.66;4980305;28;20420;-83
2023/09/23 09:27:52;;;;;;;3.33;1.20;;;;;;;13.68;100.00;97446.19;4980846;28;20414;-85
2023/09/23 09:30:19;;;;;;;3.47;1.30;;;;;;;13.98;100.00;97448.00;4981238;28;20404;-83
2023/09/23 09:32:47;;;;;;;2.55;1.00;;;;;;;14.07;100.00;97443.69;4974141;28;20399;-82
2023/09/23 09:35:14;;;;;;;1.80;1.13;;;;;;;14.05;100.00;97445.03;4989356;28;20437;-83
2023/09/23 09:37:46;;;;;;;1.98;1.10;;;;;;;14.21;100.00;97450.00;4986116;28;20410;-84
2023/09/23 09:40:17;;;;;;;1.20;0.93;;;;;;;14.51;100.00;97445.69;4995427;28;20398;-82
2023/09/23 09:42:52;;;;;;;2.97;1.20;;;;;;;14.63;100.00;97444.28;4993175;28;20404;-83
2023/09/23 09:45:19;;;;;;;1.05;0.90;;;;;;;14.92;100.00;97451.53;4982767;28;20519;-83
2023/09/23 09:47:48;;;;;;;5.63;1.02;;;;;;;14.97;100.00;97456.84;4983556;28;20893;-84
2023/09/23 09:50:16;;;;;;;1.25;1.00;;;;;;;15.22;100.00;97442.53;4980891;28;20404;-83
2023/09/23 09:52:46;;;;;;;2.92;1.40;;;;;;;15.68;100.00;97450.97;4979401;28;20419;-82
2023/09/23 09:55:20;;;;;;;4.65;1.30;;;;;;;15.64;100.00;97453.38;4985689;28;20407;-80
2023/09/23 09:57:48;;;;;;;3.70;1.30;;;;;;;15.58;100.00;97443.84;4982441;28;20454;-82
2023/09/23 10:00:27;;;;;;;1.20;0.90;;;;;;;15.81;100.00;97440.41;4983060;28;20450;-83
2023/09/23 10:02:59;;;;;;;2.97;1.58;;;;;;;15.74;100.00;97458.63;4985526;28;20790;-82
2023/09/23 10:05:32;;;;;;;3.28;1.00;;;;;;;15.91;100.00;97452.06;4983499;28;20423;-82
2023/09/23 10:07:59;;;;;;;4.45;1.15;;;;;;;15.98;100.00;97449.84;4985457;28;20841;-82
2023/09/23 10:10:31;;;;;;;2.40;1.10;;;;;;;16.15;100.00;97448.31;4996085;28;20493;-83
2023/09/23 10:13:07;;;;;;;1.65;1.13;;;;;;;15.97;100.00;97457.06;4999688;28;20414;-83
2023/09/23 10:15:37;;;;;;;4.60;1.00;;;;;;;16.13;100.00;97460.38;4989794;28;20410;-81
2023/09/23 10:18:10;;;;;;;2.60;1.20;;;;;;;16.25;100.00;97453.53;4985771;28;20394;-83
2023/09/23 10:20:41;;;;;;;1.25;1.00;;;;;;;16.35;100.00;97465.19;4981453;28;20722;-82
2023/09/23 10:23:08;;;;;;;1.45;0.82;;;;;;;16.39;100.00;97472.31;4979924;28;20400;-84
2023/09/23 10:25:38;;;;;;;1.98;1.13;;;;;;;16.49;100.00;97458.84;4979568;28;20420;-83
2023/09/23 10:28:07;;;;;;;2.45;1.10;;;;;;;15.90;100.00;97463.81;4988742;28;20479;-83
2023/09/23 10:30:35;;;;;;;4.25;1.45;;;;;;;15.75;100.00;97470.09;4990428;28;20433;-82
2023/09/23 10:33:02;;;;;;;4.30;1.33;;;;;;;15.78;100.00;97465.00;4995923;28;20415;-80
2023/09/23 10:35:28;;;;;;;1.85;1.45;;;;;;;16.16;100.00;97459.81;4978315;28;20401;-82
2023/09/23 10:37:55;;;;;;;2.50;1.38;;;;;;;16.12;100.00;97470.25;4987707;28;20407;-84
2023/09/23 10:40:21;;;;;;;4.57;1.75;;;;;;;15.85;100.00;97464.69;4978840;28;20412;-81
2023/09/23 10:42:48;;;;;;;3.23;1.23;;;;;;;16.07;100.00;97470.31;4979108;28;20821;-81
2023/09/23 10:45:22;;;;;;;3.90;1.33;;;;;;;15.61;100.00;97456.63;4979282;28;20427;-83
2023/09/23 10:47:48;;;;;;;1.63;1.15;;;;;;;15.81;100.00;97475.09;4991570;28;20468;-83
2023/09/23 10:50:15;;;;;;;3.63;1.23;;;;;;;15.92;100.00;97469.69;4980481;28;20404;-82
2023/09/23 10:52:41;;;;;;;2.45;1.23;;;;;;;16.26;100.00;97478.38;4979350;28;20415;-80
2023/09/23 10:55:09;;;;;;;5.13;1.13;;;;;;;16.37;100.00;97477.19;4979754;28;20412;-80
2023/09/23 10:57:36;;;;;;;3.35;1.30;;;;;;;16.33;100.00;97478.00;4979305;28;20408;-81
2023/09/23 11:00:12;;;;;;;2.78;1.30;;;;;;;16.02;100.00;97481.03;4979493;28;20983;-82
2023/09/23 11:02:44;;;;;;;2.30;1.30;;;;;;;15.86;100.00;97480.38;4989241;28;20418;-83
2023/09/23 11:05:11;;;;;;;1.80;1.25;;;;;;;15.68;100.00;97485.66;4984751;28;20628;-83
2023/09/23 11:07:37;;;;;;;4.10;1.65;;;;;;;15.79;100.00;97484.47;4979755;28;20404;-82
2023/09/23 11:10:04;;;;;;;2.17;1.10;;;;;;;16.10;100.00;97484.94;4981784;28;20403;-83
2023/09/23 11:12:33;;;;;;;3.70;1.33;;;;;;;16.50;100.00;97481.03;4980011;28;20927;-82
2023/09/23 11:15:01;;;;;;;2.80;1.20;;;;;;;16.41;100.00;97482.72;4984518;28;20445;-83
2023/09/23 11:17:33;;;;;;;3.42;1.25;;;;;;;16.50;100.00;97483.69;4989366;28;20419;-83
2023/09/23 11:20:04;;;;;;;3.08;1.30;;;;;;;16.49;100.00;97480.22;4990480;28;20518;-83
2023/09/23 11:22:32;;;;;;;2.78;1.38;;;;;;;16.40;100.00;97473.13;4990916;28;20411;-80
2023/09/23 11:24:59;;;;;;;1.65;1.05;;;;;;;16.72;100.00;97475.94;4985573;28;20777;-80
2023/09/23 11:27:26;;;;;;;1.88;1.20;;;;;;;16.82;100.00;97494.53;4976790;28;20915;-81